Capitola, CA

3:18 PM PDT on August 29, 2016 (GMT -0700)
New Brighton Middle School | | Change Station

Elev 0 ft 36.98 °N, 121.95 °W | Updated 7 seconds ago

Clear
Clear
68.0 °F
Feels Like 68.0 °F
N
4.4
Wind Variable Wind from ESE
Gusts 7.0 mph

Today
High -- | Low -- °F
--% Chance of Precip.
Yesterday
High -- | Low -- °F
Precip. -- in
Pressure 30.02 in
Visibility 10.0 miles
Clouds Clear
Dew Point 57 °F
Humidity 69%
Rainfall 0.00 in
Snow Depth Not available.
6:36 AM 7:39 PM
Waning Crescent, 6% visible
METAR KWVI 292153Z AUTO 18006KT 10SM CLR 24/14 A3002 RMK AO2 SLP165 T02440139
Pressure 30.02 in
Visibility 10.0 miles
Clouds Clear
Dew Point 57 °F
Humidity 69%
Rainfall 0.00 in
Snow Depth Not available.
6:36 AM 7:39 PM
Waning Crescent, 6% visible
METAR KWVI 292153Z AUTO 18006KT 10SM CLR 24/14 A3002 RMK AO2 SLP165 T02440139

10-Day Weather Forecast

Almanac

Astronomy

Aug. 29, 2016 Rise Set
Actual Time
Civil Twilight
Nautical Twilight
Astronomical Twilight
Moon
Length of Visible Light
Length of Day
Tomorrow will be .
, % of the Moon is Illuminated

Today's Extremes

State Highs State Lows

Community

WunderPhotos

Upload Photos

1,935,691 photos uploaded!

WunderBlog® & News

Nearby

Air Quality

  Air Quality AQ Index Pollutant
Not available.

Snow Depth

Station Depth Elevation

Earthquake Activity

City Distance Mag. Time & Date
Minimum magnitude displayed is 2.5.

Coastal Water Temperatures

Place Temperature

Stations

Nearby Weather Stations

Station Location Temp. Windchill Dew Point Humidity Wind Precip. Elev Updated Type
                   

Watches & Warnings

There are currently no watches in effect.